Time;durP1;ratioP1;P1;durP2;ratioP2;P2;SDS_P1;SDS_P2;PMS_P1;PMS_P2;Temp;Humidity;BMP_temperature;BMP_pressure;BME280_temperature;BME280_humidity;BME280_pressure;Samples;Min_cycle;Max_cycle;Signal;HPM_P1;HPM_P2
2023/09/30 00:01:11;;;;;;;22.92;4.53;;;;;;;;;;5044002;28;20483;-72
2023/09/30 00:03:37;;;;;;;19.95;3.88;;;;;;;;;;5035029;28;20407;-75
2023/09/30 00:06:04;;;;;;;23.42;4.30;;;;;;;;;;5033555;28;20465;-72
2023/09/30 00:08:32;;;;;;;24.98;4.43;;;;;;;;;;5041752;28;20415;-75
2023/09/30 00:10:59;;;;;;;23.42;4.60;;;;;;;;;;5034029;28;20410;-74
2023/09/30 00:13:26;;;;;;;19.40;3.35;;;;;;;;;;5041611;28;20905;-72
2023/09/30 00:15:53;;;;;;;19.20;4.43;;;;;;;;;;5033721;28;20872;-73
2023/09/30 00:18:19;;;;;;;22.83;3.95;;;;;;;;;;5043559;28;20921;-74
2023/09/30 00:20:46;;;;;;;20.55;4.43;;;;;;;;;;5045650;28;20825;-74
2023/09/30 00:23:13;;;;;;;21.10;4.70;;;;;;;;;;5033371;28;20934;-72
2023/09/30 00:25:41;;;;;;;21.10;4.90;;;;;;;;;;5034921;28;20501;-72
2023/09/30 00:28:08;;;;;;;23.98;4.60;;;;;;;;;;5030493;28;20468;-72
2023/09/30 00:30:35;;;;;;;19.63;4.00;;;;;;;;;;5015566;28;20431;-73
2023/09/30 00:33:02;;;;;;;26.27;6.35;;;;;;;;;;5033258;28;20481;-71
2023/09/30 00:35:31;;;;;;;23.02;4.65;;;;;;;;;;5033504;28;20423;-73
2023/09/30 00:37:58;;;;;;;24.40;4.68;;;;;;;;;;5016924;28;20860;-74
2023/09/30 00:40:25;;;;;;;28.33;5.22;;;;;;;;;;5048076;28;20770;-72
2023/09/30 00:42:53;;;;;;;19.65;4.50;;;;;;;;;;5034213;28;20482;-73
2023/09/30 00:45:19;;;;;;;25.45;5.65;;;;;;;;;;5044330;28;20422;-73
2023/09/30 00:47:46;;;;;;;21.67;5.43;;;;;;;;;;5031853;28;20446;-73
2023/09/30 00:50:15;;;;;;;24.80;5.97;;;;;;;;;;5049870;28;20426;-74
2023/09/30 00:52:42;;;;;;;22.75;5.13;;;;;;;;;;5006830;28;20431;-73
2023/09/30 00:55:10;;;;;;;23.75;5.13;;;;;;;;;;5032607;28;20431;-72
2023/09/30 00:57:37;;;;;;;24.15;5.45;;;;;;;;;;5041194;28;20418;-73
2023/09/30 01:00:06;;;;;;;23.77;4.97;;;;;;;;;;5040885;28;20411;-75
2023/09/30 01:02:34;;;;;;;23.50;5.25;;;;;;;;;;5032086;28;20424;-73
2023/09/30 01:05:01;;;;;;;23.65;5.47;;;;;;;;;;5034230;28;20439;-74
2023/09/30 01:07:28;;;;;;;27.27;5.07;;;;;;;;;;5032965;28;20465;-73
2023/09/30 01:09:54;;;;;;;21.30;4.60;;;;;;;;;;5033596;28;20887;-74
2023/09/30 01:12:21;;;;;;;20.70;4.47;;;;;;;;;;5032042;28;20414;-74
2023/09/30 01:14:47;;;;;;;23.90;5.45;;;;;;;;;;5049268;28;20419;-73
2023/09/30 01:17:16;;;;;;;23.50;5.25;;;;;;;;;;5032818;28;20417;-74
2023/09/30 01:19:43;;;;;;;26.10;4.40;;;;;;;;;;5043419;28;20410;-73
2023/09/30 01:22:11;;;;;;;22.00;4.70;;;;;;;;;;5033943;28;20415;-74
2023/09/30 01:24:38;;;;;;;23.45;4.45;;;;;;;;;;5031636;28;20418;-72
2023/09/30 01:27:06;;;;;;;23.35;4.88;;;;;;;;;;5033170;28;20407;-73
2023/09/30 01:29:33;;;;;;;19.90;4.20;;;;;;;;;;5036358;28;20464;-72
2023/09/30 01:32:00;;;;;;;25.70;4.70;;;;;;;;;;5033465;28;20414;-75
2023/09/30 01:34:27;;;;;;;22.27;5.60;;;;;;;;;;5033683;28;20903;-73
2023/09/30 01:36:54;;;;;;;20.40;5.38;;;;;;;;;;5039704;28;20449;-71
2023/09/30 01:39:22;;;;;;;22.83;4.68;;;;;;;;;;5015774;28;20411;-74
2023/09/30 01:41:48;;;;;;;21.67;5.00;;;;;;;;;;5032189;28;20498;-73
2023/09/30 01:44:15;;;;;;;18.67;3.80;;;;;;;;;;5033145;28;20581;-74
2023/09/30 01:46:42;;;;;;;19.80;4.10;;;;;;;;;;5037012;28;20454;-77
2023/09/30 01:49:08;;;;;;;21.23;4.40;;;;;;;;;;5031850;28;20443;-74
2023/09/30 01:51:35;;;;;;;22.70;4.28;;;;;;;;;;5033832;28;20422;-73
2023/09/30 01:54:01;;;;;;;21.52;4.38;;;;;;;;;;5033165;28;20409;-73
2023/09/30 01:56:30;;;;;;;21.38;4.28;;;;;;;;;;5029043;28;20417;-76
2023/09/30 01:58:56;;;;;;;22.52;5.30;;;;;;;;;;5031042;28;20505;-75
2023/09/30 02:01:24;;;;;;;25.20;4.55;;;;;;;;;;5031307;28;20415;-73
2023/09/30 02:03:50;;;;;;;22.70;4.40;;;;;;;;;;5031146;28;20510;-73
2023/09/30 02:06:17;;;;;;;25.77;4.50;;;;;;;;;;5032674;28;20434;-74
2023/09/30 02:08:44;;;;;;;21.95;4.68;;;;;;;;;;5027329;28;20447;-74
2023/09/30 02:11:13;;;;;;;22.92;4.75;;;;;;;;;;5031459;28;20407;-74
2023/09/30 02:13:42;;;;;;;22.92;5.00;;;;;;;;;;5039385;28;20959;-73
2023/09/30 02:16:11;;;;;;;24.57;4.50;;;;;;;;;;5042449;28;20454;-74
2023/09/30 02:18:38;;;;;;;23.45;4.80;;;;;;;;;;5034612;28;20417;-75
2023/09/30 02:21:05;;;;;;;24.63;5.20;;;;;;;;;;5048202;28;21490;-73
2023/09/30 02:23:31;;;;;;;24.27;4.55;;;;;;;;;;5031027;28;20422;-76
2023/09/30 02:25:58;;;;;;;19.85;4.72;;;;;;;;;;5032143;28;20414;-74
2023/09/30 02:28:25;;;;;;;19.92;4.05;;;;;;;;;;5037074;28;20457;-75
2023/09/30 02:30:53;;;;;;;19.33;4.18;;;;;;;;;;5042462;28;20411;-74
2023/09/30 02:33:20;;;;;;;24.88;5.18;;;;;;;;;;5037779;28;20411;-75
2023/09/30 02:35:46;;;;;;;25.13;4.70;;;;;;;;;;5041760;28;20416;-73
2023/09/30 02:38:17;;;;;;;23.10;4.27;;;;;;;;;;5044123;28;20423;-76
2023/09/30 02:40:46;;;;;;;21.02;3.83;;;;;;;;;;5041374;28;20433;-74
2023/09/30 02:43:13;;;;;;;20.67;4.10;;;;;;;;;;5035159;28;20480;-73
2023/09/30 02:45:40;;;;;;;22.80;5.03;;;;;;;;;;5032295;28;20581;-74
2023/09/30 02:48:08;;;;;;;23.88;4.57;;;;;;;;;;5047366;28;20422;-75
2023/09/30 02:50:35;;;;;;;21.08;4.38;;;;;;;;;;5028672;28;20414;-75
2023/09/30 02:53:01;;;;;;;24.90;4.90;;;;;;;;;;5031787;28;20403;-75
2023/09/30 02:55:28;;;;;;;23.35;4.80;;;;;;;;;;5034890;28;20502;-72
2023/09/30 02:57:55;;;;;;;21.98;5.00;;;;;;;;;;5031483;28;20418;-75
2023/09/30 03:00:26;;;;;;;28.20;5.00;;;;;;;;;;5029280;28;20428;-74
2023/09/30 03:02:54;;;;;;;24.05;5.30;;;;;;;;;;5029867;28;20423;-75
2023/09/30 03:05:23;;;;;;;27.05;5.47;;;;;;;;;;5036701;28;20911;-73
2023/09/30 03:07:50;;;;;;;28.25;6.57;;;;;;;;;;5038804;28;20472;-74
2023/09/30 03:10:20;;;;;;;25.67;6.03;;;;;;;;;;5029250;28;20457;-72
2023/09/30 03:12:47;;;;;;;27.17;6.97;;;;;;;;;;5028204;28;20407;-74
2023/09/30 03:15:14;;;;;;;24.50;5.72;;;;;;;;;;5031743;28;20411;-74
2023/09/30 03:17:41;;;;;;;29.38;6.10;;;;;;;;;;5031882;28;20498;-74
2023/09/30 03:20:11;;;;;;;20.97;4.70;;;;;;;;;;5031697;28;20441;-75
2023/09/30 03:22:40;;;;;;;24.10;4.80;;;;;;;;;;5028836;28;20563;-74
2023/09/30 03:25:07;;;;;;;23.00;4.50;;;;;;;;;;5043883;28;20415;-73
2023/09/30 03:27:34;;;;;;;21.77;4.70;;;;;;;;;;5039015;28;20406;-76
2023/09/30 03:30:01;;;;;;;20.80;4.68;;;;;;;;;;5046748;28;20413;-76
2023/09/30 03:32:29;;;;;;;19.45;4.18;;;;;;;;;;5030738;28;20422;-75
2023/09/30 03:34:59;;;;;;;22.27;4.57;;;;;;;;;;5007388;28;20420;-74
2023/09/30 03:37:26;;;;;;;21.65;4.13;;;;;;;;;;5028694;28;20410;-73
2023/09/30 03:39:55;;;;;;;20.83;4.97;;;;;;;;;;5043013;28;20419;-72
2023/09/30 03:42:21;;;;;;;22.73;5.05;;;;;;;;;;5034605;28;20418;-75
2023/09/30 03:44:51;;;;;;;22.20;4.28;;;;;;;;;;5040608;28;20407;-75
2023/09/30 03:47:18;;;;;;;21.23;4.10;;;;;;;;;;5029988;28;20415;-74
2023/09/30 03:49:45;;;;;;;20.20;4.80;;;;;;;;;;5029948;28;20465;-75
2023/09/30 03:52:11;;;;;;;28.25;6.00;;;;;;;;;;5033158;28;20468;-75
2023/09/30 03:54:41;;;;;;;21.45;4.75;;;;;;;;;;5030351;28;20442;-74
2023/09/30 03:57:12;;;;;;;24.13;4.30;;;;;;;;;;5031689;28;20411;-74
2023/09/30 03:59:39;;;;;;;20.13;5.03;;;;;;;;;;5031333;28;20911;-75
2023/09/30 04:02:06;;;;;;;25.55;5.50;;;;;;;;;;5031355;28;20407;-75
2023/09/30 04:04:34;;;;;;;29.30;6.10;;;;;;;;;;5030984;28;20445;-75
2023/09/30 04:07:01;;;;;;;28.02;7.00;;;;;;;;;;5013984;28;20415;-74
2023/09/30 04:09:27;;;;;;;24.60;5.45;;;;;;;;;;5029701;28;20419;-73
2023/09/30 04:11:54;;;;;;;19.55;4.80;;;;;;;;;;5042269;28;20418;-74
2023/09/30 04:14:21;;;;;;;22.23;4.80;;;;;;;;;;5030655;28;20403;-74
2023/09/30 04:16:48;;;;;;;23.23;5.55;;;;;;;;;;5031194;28;20414;-73
2023/09/30 04:19:15;;;;;;;22.50;4.90;;;;;;;;;;5029022;28;20939;-73
2023/09/30 04:21:41;;;;;;;23.25;5.20;;;;;;;;;;5035732;28;20488;-75
2023/09/30 04:24:09;;;;;;;21.65;5.05;;;;;;;;;;5032837;28;20423;-72
2023/09/30 04:26:35;;;;;;;21.00;4.43;;;;;;;;;;5033154;28;20494;-74
2023/09/30 04:29:10;;;;;;;22.20;4.28;;;;;;;;;;5033363;28;20419;-73
2023/09/30 04:31:39;;;;;;;23.20;4.95;;;;;;;;;;5031172;28;20409;-75
2023/09/30 04:34:05;;;;;;;23.55;4.78;;;;;;;;;;5033851;28;20915;-75
2023/09/30 04:36:35;;;;;;;21.02;4.50;;;;;;;;;;5032745;28;20506;-75
2023/09/30 04:39:02;;;;;;;22.83;4.18;;;;;;;;;;5034700;28;20411;-75
2023/09/30 04:41:29;;;;;;;23.92;5.53;;;;;;;;;;5042024;28;20411;-75
2023/09/30 04:43:55;;;;;;;19.95;4.70;;;;;;;;;;5044028;28;20502;-75
2023/09/30 04:46:23;;;;;;;19.90;4.93;;;;;;;;;;5043188;28;20407;-75
2023/09/30 04:48:52;;;;;;;21.83;5.20;;;;;;;;;;5033403;28;20468;-74
2023/09/30 04:51:18;;;;;;;20.63;4.95;;;;;;;;;;5034499;28;20855;-74
2023/09/30 04:53:46;;;;;;;22.23;4.68;;;;;;;;;;5029729;28;20404;-75
2023/09/30 04:56:13;;;;;;;19.08;4.93;;;;;;;;;;5037966;28;20411;-73
2023/09/30 04:58:39;;;;;;;21.58;4.85;;;;;;;;;;5034691;28;20439;-74
2023/09/30 05:01:09;;;;;;;22.70;5.20;;;;;;;;;;5035996;28;20935;-76
2023/09/30 05:03:36;;;;;;;20.02;4.18;;;;;;;;;;5033909;28;20429;-75
2023/09/30 05:06:04;;;;;;;20.63;4.75;;;;;;;;;;5032641;28;20407;-76
2023/09/30 05:08:30;;;;;;;26.55;5.05;;;;;;;;;;5035679;28;20917;-74
2023/09/30 05:10:57;;;;;;;22.55;5.70;;;;;;;;;;5035431;28;20753;-74
2023/09/30 05:13:24;;;;;;;22.80;4.80;;;;;;;;;;5045673;28;20843;-74
2023/09/30 05:15:51;;;;;;;21.13;4.45;;;;;;;;;;5034145;28;20414;-75
2023/09/30 05:18:18;;;;;;;24.15;4.55;;;;;;;;;;5032069;28;20421;-73
2023/09/30 05:20:45;;;;;;;20.50;4.47;;;;;;;;;;5032890;28;20403;-74
2023/09/30 05:23:14;;;;;;;19.75;4.50;;;;;;;;;;5033572;28;20807;-77
2023/09/30 05:25:42;;;;;;;23.50;5.10;;;;;;;;;;5033501;28;20411;-75
2023/09/30 05:28:09;;;;;;;23.30;5.43;;;;;;;;;;5041099;28;20407;-73
2023/09/30 05:30:36;;;;;;;20.60;4.38;;;;;;;;;;5035588;28;20518;-74
2023/09/30 05:33:03;;;;;;;21.98;4.30;;;;;;;;;;5028342;28;20443;-74
2023/09/30 05:35:32;;;;;;;23.77;4.93;;;;;;;;;;5010786;28;20479;-75
2023/09/30 05:37:58;;;;;;;20.38;4.63;;;;;;;;;;5032424;28;20473;-75
2023/09/30 05:40:32;;;;;;;22.10;5.03;;;;;;;;;;5031701;28;20506;-75
2023/09/30 05:43:05;;;;;;;22.75;4.55;;;;;;;;;;5033719;28;20983;-76
2023/09/30 05:45:35;;;;;;;22.92;5.03;;;;;;;;;;5045001;28;20438;-74
2023/09/30 05:48:05;;;;;;;27.13;6.63;;;;;;;;;;5039481;28;20418;-74
2023/09/30 05:50:32;;;;;;;22.97;4.67;;;;;;;;;;5033460;28;20403;-73
2023/09/30 05:53:00;;;;;;;26.63;5.40;;;;;;;;;;5035409;28;20410;-77
2023/09/30 05:55:29;;;;;;;24.48;5.70;;;;;;;;;;5032681;28;20452;-76
2023/09/30 05:57:55;;;;;;;26.52;7.03;;;;;;;;;;5033598;28;20437;-75
2023/09/30 06:00:23;;;;;;;24.67;6.25;;;;;;;;;;5032790;28;20407;-74
2023/09/30 06:02:51;;;;;;;27.35;7.88;;;;;;;;;;5032686;28;20887;-75
2023/09/30 06:05:22;;;;;;;30.63;7.00;;;;;;;;;;5023496;28;20431;-73
2023/09/30 06:07:49;;;;;;;26.73;6.60;;;;;;;;;;5033438;28;20509;-73
2023/09/30 06:10:16;;;;;;;26.17;6.67;;;;;;;;;;5031555;28;20411;-74
2023/09/30 06:12:44;;;;;;;29.67;7.18;;;;;;;;;;5033041;28;20496;-73
2023/09/30 06:15:10;;;;;;;24.25;7.25;;;;;;;;;;5032299;28;20800;-75
2023/09/30 06:17:37;;;;;;;26.25;6.57;;;;;;;;;;5031101;28;20446;-73
2023/09/30 06:20:08;;;;;;;33.50;7.40;;;;;;;;;;5034191;28;20414;-73
2023/09/30 06:22:35;;;;;;;28.98;7.00;;;;;;;;;;5031688;28;20460;-74
2023/09/30 06:25:04;;;;;;;24.33;6.28;;;;;;;;;;5031699;28;20430;-74
2023/09/30 06:27:31;;;;;;;25.80;6.95;;;;;;;;;;5035312;28;20403;-74
2023/09/30 06:29:59;;;;;;;28.95;7.53;;;;;;;;;;5032054;28;20490;-74
2023/09/30 06:32:26;;;;;;;27.73;6.88;;;;;;;;;;5030728;28;20419;-73
2023/09/30 06:34:52;;;;;;;30.42;7.55;;;;;;;;;;5047426;28;20477;-75
2023/09/30 06:37:19;;;;;;;33.45;8.38;;;;;;;;;;5031415;28;20792;-74
2023/09/30 06:39:48;;;;;;;29.63;7.50;;;;;;;;;;5031568;28;20469;-74
2023/09/30 06:42:14;;;;;;;28.50;7.50;;;;;;;;;;5031125;28;20406;-74
2023/09/30 06:44:41;;;;;;;29.50;7.78;;;;;;;;;;5041867;28;20977;-74
2023/09/30 06:47:12;;;;;;;27.85;7.97;;;;;;;;;;5031363;28;20418;-75
2023/09/30 06:49:39;;;;;;;29.60;7.72;;;;;;;;;;5036950;28;20468;-76
2023/09/30 06:52:05;;;;;;;27.17;7.28;;;;;;;;;;5045150;28;20915;-76
2023/09/30 06:54:32;;;;;;;30.98;8.00;;;;;;;;;;5030437;28;20406;-73
2023/09/30 06:56:58;;;;;;;26.00;6.90;;;;;;;;;;5030239;28;20505;-75
2023/09/30 06:59:26;;;;;;;28.00;8.50;;;;;;;;;;5029953;28;20403;-74
2023/09/30 07:01:52;;;;;;;31.40;8.60;;;;;;;;;;5031662;28;20975;-74
2023/09/30 07:04:21;;;;;;;34.92;9.70;;;;;;;;;;5012897;28;20499;-75
2023/09/30 07:06:48;;;;;;;33.55;9.85;;;;;;;;;;5030194;28;20761;-74
2023/09/30 07:09:15;;;;;;;31.90;10.10;;;;;;;;;;5030106;28;20411;-75
2023/09/30 07:11:44;;;;;;;30.08;9.98;;;;;;;;;;5031863;28;20422;-75
2023/09/30 07:14:10;;;;;;;31.15;10.57;;;;;;;;;;5030441;28;20772;-74
2023/09/30 07:16:37;;;;;;;33.90;11.18;;;;;;;;;;5031120;28;20414;-75
2023/09/30 07:19:04;;;;;;;28.57;9.23;;;;;;;;;;5031433;28;20564;-76
2023/09/30 07:21:31;;;;;;;34.55;11.40;;;;;;;;;;5031195;28;20414;-75
2023/09/30 07:23:58;;;;;;;33.65;11.30;;;;;;;;;;5013300;28;20518;-74
2023/09/30 07:26:25;;;;;;;37.00;11.07;;;;;;;;;;5042390;28;20469;-75
2023/09/30 07:28:53;;;;;;;37.63;12.43;;;;;;;;;;5030218;28;20750;-76
2023/09/30 07:31:22;;;;;;;34.88;11.82;;;;;;;;;;5034090;28;20410;-76
2023/09/30 07:33:49;;;;;;;35.08;11.85;;;;;;;;;;5029161;28;20408;-76
2023/09/30 07:36:16;;;;;;;43.75;12.25;;;;;;;;;;5031131;28;20553;-75
2023/09/30 07:38:44;;;;;;;38.80;12.73;;;;;;;;;;5031165;28;20788;-77
2023/09/30 07:41:10;;;;;;;33.38;12.32;;;;;;;;;;5031538;28;20490;-76
2023/09/30 07:43:37;;;;;;;38.20;12.70;;;;;;;;;;5029215;28;20542;-77
2023/09/30 07:46:05;;;;;;;39.33;13.27;;;;;;;;;;5029373;28;20756;-76
2023/09/30 07:48:32;;;;;;;35.40;12.88;;;;;;;;;;5029815;28;20409;-75
2023/09/30 07:50:59;;;;;;;38.80;12.95;;;;;;;;;;5029619;28;20410;-74
2023/09/30 07:53:26;;;;;;;35.45;13.40;;;;;;;;;;5029137;28;20784;-74
2023/09/30 07:55:54;;;;;;;33.90;12.10;;;;;;;;;;5024232;28;20752;-74
2023/09/30 07:58:20;;;;;;;32.92;12.45;;;;;;;;;;5033292;28;20447;-75
2023/09/30 08:00:48;;;;;;;38.90;11.55;;;;;;;;;;5033553;28;20457;-75
2023/09/30 08:03:14;;;;;;;38.58;12.82;;;;;;;;;;5033293;28;20443;-75
2023/09/30 08:05:42;;;;;;;31.90;11.60;;;;;;;;;;5034554;28;20415;-74
2023/09/30 08:08:09;;;;;;;30.23;10.25;;;;;;;;;;5030619;28;20419;-74
2023/09/30 08:10:36;;;;;;;28.23;10.40;;;;;;;;;;5031796;28;20450;-73
2023/09/30 08:13:04;;;;;;;26.33;9.15;;;;;;;;;;5033175;28;20411;-74
2023/09/30 08:15:31;;;;;;;28.90;10.83;;;;;;;;;;5032665;28;20407;-76
2023/09/30 08:17:58;;;;;;;25.30;9.20;;;;;;;;;;5034477;28;20447;-75
2023/09/30 08:20:25;;;;;;;25.48;8.00;;;;;;;;;;5030485;28;20429;-75
2023/09/30 08:22:51;;;;;;;27.05;7.88;;;;;;;;;;5033156;28;20407;-76
2023/09/30 08:25:18;;;;;;;28.27;8.00;;;;;;;;;;5035549;28;20450;-75
2023/09/30 08:27:49;;;;;;;26.23;8.50;;;;;;;;;;5032742;28;20423;-75
2023/09/30 08:30:17;;;;;;;26.58;8.80;;;;;;;;;;5031680;28;20487;-73
2023/09/30 08:32:44;;;;;;;27.88;8.30;;;;;;;;;;5032703;28;20421;-75
2023/09/30 08:35:11;;;;;;;25.02;8.38;;;;;;;;;;5033673;28;20399;-77
2023/09/30 08:37:37;;;;;;;25.33;8.38;;;;;;;;;;5033993;28;20415;-75
2023/09/30 08:40:04;;;;;;;28.10;9.20;;;;;;;;;;5035239;28;20586;-75
2023/09/30 08:42:33;;;;;;;28.92;8.45;;;;;;;;;;5033867;28;20498;-75
2023/09/30 08:45:01;;;;;;;26.02;9.13;;;;;;;;;;5026125;28;20424;-74
2023/09/30 08:47:29;;;;;;;25.35;8.82;;;;;;;;;;5033408;28;20439;-73
2023/09/30 08:49:57;;;;;;;23.63;8.50;;;;;;;;;;5032350;28;20458;-73
2023/09/30 08:52:24;;;;;;;29.77;8.45;;;;;;;;;;5031458;28;20411;-74
2023/09/30 08:54:51;;;;;;;26.67;8.00;;;;;;;;;;5029230;28;20432;-75
2023/09/30 08:57:19;;;;;;;22.80;7.00;;;;;;;;;;5045041;28;20507;-74
2023/09/30 08:59:46;;;;;;;22.92;7.78;;;;;;;;;;5032763;28;20410;-75
2023/09/30 09:02:12;;;;;;;23.27;7.60;;;;;;;;;;5033809;28;20407;-73
2023/09/30 09:04:40;;;;;;;24.10;7.60;;;;;;;;;;5032112;28;20429;-72
2023/09/30 09:07:08;;;;;;;25.45;7.70;;;;;;;;;;5032616;28;20465;-75
2023/09/30 09:09:34;;;;;;;24.48;7.90;;;;;;;;;;5032969;28;20469;-74
2023/09/30 09:12:02;;;;;;;23.17;7.70;;;;;;;;;;5032155;28;20423;-74
2023/09/30 09:14:39;;;;;;;24.50;8.07;;;;;;;;;;5031046;28;20470;-74
2023/09/30 09:17:07;;;;;;;23.70;7.88;;;;;;;;;;5031359;28;20518;-74
2023/09/30 09:19:34;;;;;;;24.13;7.77;;;;;;;;;;5023558;28;20486;-75
2023/09/30 09:22:04;;;;;;;22.92;7.35;;;;;;;;;;5031862;28;20402;-73
2023/09/30 09:24:31;;;;;;;23.42;7.50;;;;;;;;;;5040590;28;20426;-74
2023/09/30 09:27:06;;;;;;;22.70;7.05;;;;;;;;;;5042856;28;20407;-74
2023/09/30 09:29:32;;;;;;;25.65;7.72;;;;;;;;;;5032398;28;20418;-73
2023/09/30 09:32:09;;;;;;;22.35;7.10;;;;;;;;;;5045425;28;20507;-74
2023/09/30 09:34:36;;;;;;;22.00;7.10;;;;;;;;;;5032845;28;20788;-74
2023/09/30 09:37:14;;;;;;;23.50;8.38;;;;;;;;;;5031005;28;20426;-72
2023/09/30 09:39:48;;;;;;;22.38;7.00;;;;;;;;;;5031007;28;20419;-72
2023/09/30 09:42:23;;;;;;;26.17;7.20;;;;;;;;;;5031106;28;20407;-74
2023/09/30 09:44:50;;;;;;;22.55;7.38;;;;;;;;;;5032170;28;20557;-73
2023/09/30 09:47:18;;;;;;;24.15;6.95;;;;;;;;;;5033224;28;20413;-74
2023/09/30 09:49:44;;;;;;;23.48;7.47;;;;;;;;;;5030683;28;20427;-72
2023/09/30 09:52:11;;;;;;;20.80;6.13;;;;;;;;;;5032731;28;20413;-73
2023/09/30 09:54:40;;;;;;;25.42;6.60;;;;;;;;;;5032499;28;21146;-75
2023/09/30 09:57:09;;;;;;;23.45;6.75;;;;;;;;;;5029424;28;20501;-72
2023/09/30 09:59:36;;;;;;;21.90;6.45;;;;;;;;;;5032071;28;20406;-72
2023/09/30 10:02:06;;;;;;;25.75;7.95;;;;;;;;;;5029238;28;20422;-71
2023/09/30 10:04:33;;;;;;;22.92;6.50;;;;;;;;;;5013595;28;20823;-73
2023/09/30 10:07:00;;;;;;;25.20;7.63;;;;;;;;;;5032259;28;20435;-73
2023/09/30 10:09:27;;;;;;;23.85;6.70;;;;;;;;;;5032013;28;20949;-72
2023/09/30 10:11:58;;;;;;;23.52;7.55;;;;;;;;;;5032422;28;20497;-73
2023/09/30 10:14:30;;;;;;;22.07;6.20;;;;;;;;;;5046640;28;20492;-72
2023/09/30 10:16:56;;;;;;;22.60;6.93;;;;;;;;;;5032150;28;20407;-74
2023/09/30 10:19:23;;;;;;;23.67;6.88;;;;;;;;;;5042778;28;20407;-74
2023/09/30 10:22:09;;;;;;;22.27;6.00;;;;;;;;;;5043810;28;20418;-73
2023/09/30 10:24:36;;;;;;;22.13;6.57;;;;;;;;;;5047306;28;20867;-72
2023/09/30 10:27:21;;;;;;;23.95;6.60;;;;;;;;;;5031486;28;20489;-72
2023/09/30 10:29:54;;;;;;;21.90;5.88;;;;;;;;;;5046130;28;20515;-73
2023/09/30 10:32:20;;;;;;;22.70;5.80;;;;;;;;;;5040986;28;20411;-73
2023/09/30 10:34:47;;;;;;;20.27;6.00;;;;;;;;;;5033022;28;20896;-74
2023/09/30 10:37:20;;;;;;;21.60;6.00;;;;;;;;;;5043652;28;20454;-73
2023/09/30 10:39:58;;;;;;;20.08;5.93;;;;;;;;;;5032073;28;20437;-74
2023/09/30 10:42:49;;;;;;;19.85;4.80;;;;;;;;;;5045768;28;20840;-74
2023/09/30 10:45:34;;;;;;;21.27;5.20;;;;;;;;;;5032516;28;20831;-74
2023/09/30 10:48:17;;;;;;;19.40;3.95;;;;;;;;;;5029563;28;20449;-74
2023/09/30 10:50:54;;;;;;;20.40;4.97;;;;;;;;;;5029234;28;20423;-74
2023/09/30 10:53:21;;;;;;;20.45;5.00;;;;;;;;;;5031185;28;20421;-75
2023/09/30 10:55:54;;;;;;;18.50;4.82;;;;;;;;;;5045629;28;20514;-72
2023/09/30 10:58:21;;;;;;;18.83;4.80;;;;;;;;;;5040442;28;20413;-75
2023/09/30 11:00:54;;;;;;;21.77;5.30;;;;;;;;;;5030530;28;20439;-73
2023/09/30 11:03:21;;;;;;;21.13;5.80;;;;;;;;;;5031589;28;20803;-74
2023/09/30 11:05:48;;;;;;;22.92;5.72;;;;;;;;;;5031662;28;20422;-74
2023/09/30 11:08:36;;;;;;;20.73;5.00;;;;;;;;;;5034674;28;20407;-75
2023/09/30 11:11:03;;;;;;;21.30;4.80;;;;;;;;;;5037562;28;20413;-75
2023/09/30 11:13:34;;;;;;;18.42;4.30;;;;;;;;;;5033280;28;20451;-75
2023/09/30 11:16:02;;;;;;;21.67;4.40;;;;;;;;;;5029659;28;20422;-76
2023/09/30 11:18:29;;;;;;;19.85;3.90;;;;;;;;;;5029231;28;20625;-75
2023/09/30 11:21:03;;;;;;;18.48;3.80;;;;;;;;;;5029646;28;20411;-74
2023/09/30 11:23:30;;;;;;;18.35;3.35;;;;;;;;;;5011752;28;20436;-75
2023/09/30 11:25:59;;;;;;;19.23;3.50;;;;;;;;;;5043790;28;20426;-73
2023/09/30 11:28:35;;;;;;;17.63;3.20;;;;;;;;;;5046629;28;20451;-75
2023/09/30 11:31:02;;;;;;;20.08;3.95;;;;;;;;;;5019719;28;20408;-74
2023/09/30 11:33:30;;;;;;;19.57;3.73;;;;;;;;;;5047120;28;20410;-73
2023/09/30 11:35:58;;;;;;;17.80;2.90;;;;;;;;;;5033407;28;20442;-75
2023/09/30 11:38:25;;;;;;;19.35;3.67;;;;;;;;;;5025827;28;20959;-75
2023/09/30 11:41:02;;;;;;;18.52;3.10;;;;;;;;;;5034161;28;20883;-76
2023/09/30 11:43:29;;;;;;;16.52;2.70;;;;;;;;;;5035212;28;20461;-75
2023/09/30 11:46:05;;;;;;;17.30;2.60;;;;;;;;;;5046384;28;20429;-75
2023/09/30 11:48:32;;;;;;;17.55;2.70;;;;;;;;;;5033083;28;20549;-72
2023/09/30 11:51:03;;;;;;;17.05;2.58;;;;;;;;;;5032420;28;20432;-73
2023/09/30 11:53:33;;;;;;;16.73;2.35;;;;;;;;;;5035364;28;20415;-73
2023/09/30 11:56:02;;;;;;;16.80;3.00;;;;;;;;;;5049391;28;20442;-76
2023/09/30 11:58:32;;;;;;;16.58;2.67;;;;;;;;;;5034927;28;20413;-74
2023/09/30 12:01:02;;;;;;;17.40;2.60;;;;;;;;;;5034906;28;20429;-74
2023/09/30 12:03:28;;;;;;;18.13;3.17;;;;;;;;;;5033522;28;20406;-74
2023/09/30 12:05:55;;;;;;;16.33;2.30;;;;;;;;;;5031771;28;20431;-73
2023/09/30 12:08:22;;;;;;;19.00;2.70;;;;;;;;;;5034498;28;20451;-75
2023/09/30 12:10:49;;;;;;;21.90;3.00;;;;;;;;;;5033174;28;20515;-74
2023/09/30 12:13:18;;;;;;;17.20;2.22;;;;;;;;;;5033374;28;20414;-74
2023/09/30 12:15:44;;;;;;;19.20;2.40;;;;;;;;;;5030555;28;20417;-74
2023/09/30 12:18:13;;;;;;;17.45;2.00;;;;;;;;;;5036541;28;20954;-75
2023/09/30 12:20:41;;;;;;;18.10;2.55;;;;;;;;;;5030510;28;20431;-75
2023/09/30 12:23:08;;;;;;;18.42;2.47;;;;;;;;;;5031202;28;20412;-75
2023/09/30 12:25:45;;;;;;;18.48;2.30;;;;;;;;;;5032455;28;20422;-75
2023/09/30 12:28:22;;;;;;;16.27;2.40;;;;;;;;;;5019651;28;20474;-73
2023/09/30 12:30:49;;;;;;;17.40;2.63;;;;;;;;;;5034124;28;20792;-75
2023/09/30 12:33:15;;;;;;;17.95;2.72;;;;;;;;;;5034071;28;20472;-75
2023/09/30 12:35:42;;;;;;;19.30;2.50;;;;;;;;;;5033476;28;20552;-75
2023/09/30 12:38:09;;;;;;;18.30;2.30;;;;;;;;;;5033932;28;20492;-75
2023/09/30 12:40:36;;;;;;;17.80;2.30;;;;;;;;;;5032659;28;20411;-74
2023/09/30 12:43:02;;;;;;;16.98;2.17;;;;;;;;;;5039051;28;20427;-73
2023/09/30 12:45:30;;;;;;;18.42;2.65;;;;;;;;;;5032324;28;20477;-74
2023/09/30 12:47:57;;;;;;;17.90;2.45;;;;;;;;;;5028730;28;20424;-74
2023/09/30 12:50:24;;;;;;;18.15;3.13;;;;;;;;;;5025319;28;20403;-75
2023/09/30 12:52:51;;;;;;;16.10;2.00;;;;;;;;;;5033812;28;20505;-75
2023/09/30 12:55:17;;;;;;;17.00;3.03;;;;;;;;;;5033227;28;20403;-75
2023/09/30 12:57:44;;;;;;;16.40;1.98;;;;;;;;;;5038367;28;20903;-75
2023/09/30 13:00:11;;;;;;;17.20;2.33;;;;;;;;;;5032433;28;20915;-75
2023/09/30 13:02:39;;;;;;;17.40;2.60;;;;;;;;;;5028698;28;20417;-76
2023/09/30 13:05:06;;;;;;;16.45;2.20;;;;;;;;;;5032856;28;20414;-75
2023/09/30 13:07:33;;;;;;;15.90;2.40;;;;;;;;;;5033275;28;20481;-75
2023/09/30 13:10:00;;;;;;;17.65;2.67;;;;;;;;;;5032476;28;20442;-76
2023/09/30 13:12:27;;;;;;;17.05;2.40;;;;;;;;;;5033251;28;20425;-75
2023/09/30 13:14:55;;;;;;;16.23;2.40;;;;;;;;;;5031793;28;20419;-74
2023/09/30 13:17:23;;;;;;;17.87;3.27;;;;;;;;;;4997244;28;20404;-74
2023/09/30 13:19:51;;;;;;;17.30;3.45;;;;;;;;;;5014479;28;20494;-75
2023/09/30 13:22:18;;;;;;;17.37;2.70;;;;;;;;;;5036903;28;20419;-75
2023/09/30 13:24:45;;;;;;;17.50;2.40;;;;;;;;;;5032412;28;20414;-75
2023/09/30 13:27:15;;;;;;;17.30;3.20;;;;;;;;;;5032532;28;20441;-75
2023/09/30 13:29:42;;;;;;;16.55;2.50;;;;;;;;;;5048325;28;20910;-74
2023/09/30 13:32:09;;;;;;;17.60;3.00;;;;;;;;;;5031858;28;20422;-75
2023/09/30 13:34:35;;;;;;;18.88;2.70;;;;;;;;;;5033007;28;20493;-75
2023/09/30 13:37:03;;;;;;;16.08;2.40;;;;;;;;;;5031661;28;20465;-75
2023/09/30 13:39:31;;;;;;;16.15;2.10;;;;;;;;;;5027612;28;20407;-75
2023/09/30 13:41:59;;;;;;;18.38;2.50;;;;;;;;;;5032863;28;20446;-75
2023/09/30 13:44:25;;;;;;;15.95;2.28;;;;;;;;;;5034166;28;20410;-75
2023/09/30 13:46:52;;;;;;;15.55;1.95;;;;;;;;;;5031153;28;20430;-75
2023/09/30 13:49:20;;;;;;;17.23;2.13;;;;;;;;;;5037712;28;20407;-75
2023/09/30 13:51:47;;;;;;;17.63;2.10;;;;;;;;;;5030951;28;20841;-74
2023/09/30 13:54:15;;;;;;;16.05;2.30;;;;;;;;;;5028267;28;20501;-75
2023/09/30 13:56:42;;;;;;;16.60;2.20;;;;;;;;;;5031762;28;20441;-74
2023/09/30 13:59:08;;;;;;;18.20;2.50;;;;;;;;;;5033850;28;20403;-74
2023/09/30 14:01:37;;;;;;;17.37;1.90;;;;;;;;;;5029520;28;20414;-75
2023/09/30 14:04:04;;;;;;;17.23;2.50;;;;;;;;;;5029532;28;20884;-75
2023/09/30 14:06:31;;;;;;;17.25;2.65;;;;;;;;;;5030346;28;20780;-74
2023/09/30 14:08:58;;;;;;;15.50;2.22;;;;;;;;;;5031594;28;20425;-75
2023/09/30 14:11:26;;;;;;;16.27;2.10;;;;;;;;;;5031579;28;20411;-75
2023/09/30 14:13:53;;;;;;;16.13;1.90;;;;;;;;;;5029747;28;20450;-75
2023/09/30 14:16:20;;;;;;;16.55;2.00;;;;;;;;;;5036192;28;20413;-75
2023/09/30 14:18:47;;;;;;;17.75;2.38;;;;;;;;;;5031239;28;20407;-75
2023/09/30 14:21:14;;;;;;;18.17;2.30;;;;;;;;;;5018605;28;20910;-75
2023/09/30 14:23:41;;;;;;;19.75;2.20;;;;;;;;;;5030212;28;20490;-75
2023/09/30 14:26:10;;;;;;;16.38;2.15;;;;;;;;;;5032141;28;20515;-74
2023/09/30 14:28:39;;;;;;;15.55;2.05;;;;;;;;;;5030847;28;20403;-75
2023/09/30 14:31:06;;;;;;;17.30;2.00;;;;;;;;;;5043615;28;20430;-75
2023/09/30 14:33:34;;;;;;;16.70;2.17;;;;;;;;;;5032537;28;20422;-74